sensor_id;sensor_type;location;lat;lon;timestamp;P1;durP1;ratioP1;P2;durP2;ratioP2
34767;SDS011;21755;43.608;1.236;2023-09-19T00:00:45;7.70;;;1.85;;
34767;SDS011;21755;43.608;1.236;2023-09-19T00:03:14;11.98;;;2.65;;
34767;SDS011;21755;43.608;1.236;2023-09-19T00:05:40;7.70;;;1.85;;
34767;SDS011;21755;43.608;1.236;2023-09-19T00:08:09;6.90;;;2.03;;
34767;SDS011;21755;43.608;1.236;2023-09-19T00:10:35;9.10;;;2.28;;
34767;SDS011;21755;43.608;1.236;2023-09-19T00:13:02;6.93;;;2.20;;
34767;SDS011;21755;43.608;1.236;2023-09-19T00:15:39;14.18;;;2.38;;
34767;SDS011;21755;43.608;1.236;2023-09-19T00:18:13;11.15;;;2.58;;
34767;SDS011;21755;43.608;1.236;2023-09-19T00:20:44;10.75;;;2.30;;
34767;SDS011;21755;43.608;1.236;2023-09-19T00:23:13;5.40;;;2.28;;
34767;SDS011;21755;43.608;1.236;2023-09-19T00:25:39;7.55;;;2.30;;
34767;SDS011;21755;43.608;1.236;2023-09-19T00:28:06;9.93;;;2.30;;
34767;SDS011;21755;43.608;1.236;2023-09-19T00:30:32;10.05;;;2.30;;
34767;SDS011;21755;43.608;1.236;2023-09-19T00:32:59;8.35;;;2.10;;
34767;SDS011;21755;43.608;1.236;2023-09-19T00:35:28;8.15;;;2.10;;
34767;SDS011;21755;43.608;1.236;2023-09-19T00:37:55;9.45;;;2.50;;
34767;SDS011;21755;43.608;1.236;2023-09-19T00:40:21;9.40;;;2.20;;
34767;SDS011;21755;43.608;1.236;2023-09-19T00:42:48;14.25;;;2.75;;
34767;SDS011;21755;43.608;1.236;2023-09-19T00:45:15;10.02;;;2.15;;
34767;SDS011;21755;43.608;1.236;2023-09-19T00:47:46;8.70;;;2.88;;
34767;SDS011;21755;43.608;1.236;2023-09-19T00:50:21;6.97;;;2.08;;
34767;SDS011;21755;43.608;1.236;2023-09-19T00:55:18;11.57;;;2.35;;
34767;SDS011;21755;43.608;1.236;2023-09-19T00:57:45;10.52;;;2.35;;
34767;SDS011;21755;43.608;1.236;2023-09-19T01:00:12;5.88;;;1.90;;
34767;SDS011;21755;43.608;1.236;2023-09-19T01:02:43;10.65;;;2.38;;
34767;SDS011;21755;43.608;1.236;2023-09-19T01:05:10;8.82;;;2.38;;
34767;SDS011;21755;43.608;1.236;2023-09-19T01:07:37;11.95;;;2.50;;
34767;SDS011;21755;43.608;1.236;2023-09-19T01:10:06;6.18;;;2.10;;
34767;SDS011;21755;43.608;1.236;2023-09-19T01:12:43;8.15;;;2.20;;
34767;SDS011;21755;43.608;1.236;2023-09-19T01:29:16;7.15;;;2.22;;
34767;SDS011;21755;43.608;1.236;2023-09-19T01:32:04;8.02;;;2.00;;
34767;SDS011;21755;43.608;1.236;2023-09-19T01:34:47;7.90;;;2.15;;
34767;SDS011;21755;43.608;1.236;2023-09-19T01:37:15;5.70;;;1.60;;
34767;SDS011;21755;43.608;1.236;2023-09-19T01:39:55;5.93;;;2.22;;
34767;SDS011;21755;43.608;1.236;2023-09-19T01:48:05;8.82;;;1.98;;
34767;SDS011;21755;43.608;1.236;2023-09-19T01:50:49;11.25;;;2.00;;
34767;SDS011;21755;43.608;1.236;2023-09-19T01:53:26;9.77;;;2.38;;
34767;SDS011;21755;43.608;1.236;2023-09-19T01:56:00;4.00;;;1.63;;
34767;SDS011;21755;43.608;1.236;2023-09-19T02:01:02;8.27;;;2.53;;
34767;SDS011;21755;43.608;1.236;2023-09-19T02:03:31;6.32;;;1.92;;
34767;SDS011;21755;43.608;1.236;2023-09-19T02:06:00;5.68;;;2.10;;
34767;SDS011;21755;43.608;1.236;2023-09-19T02:08:26;7.45;;;2.10;;
34767;SDS011;21755;43.608;1.236;2023-09-19T02:10:52;4.75;;;2.28;;
34767;SDS011;21755;43.608;1.236;2023-09-19T02:13:21;6.25;;;1.90;;
34767;SDS011;21755;43.608;1.236;2023-09-19T02:15:52;4.00;;;1.73;;
34767;SDS011;21755;43.608;1.236;2023-09-19T02:18:17;11.48;;;2.00;;
34767;SDS011;21755;43.608;1.236;2023-09-19T02:20:43;18.35;;;2.38;;
34767;SDS011;21755;43.608;1.236;2023-09-19T02:23:09;5.40;;;2.00;;
34767;SDS011;21755;43.608;1.236;2023-09-19T02:25:35;5.13;;;1.77;;
34767;SDS011;21755;43.608;1.236;2023-09-19T02:28:03;7.10;;;2.08;;
34767;SDS011;21755;43.608;1.236;2023-09-19T02:30:30;4.70;;;2.13;;
34767;SDS011;21755;43.608;1.236;2023-09-19T02:32:56;5.35;;;1.80;;
34767;SDS011;21755;43.608;1.236;2023-09-19T02:35:22;5.57;;;2.10;;
34767;SDS011;21755;43.608;1.236;2023-09-19T02:37:50;4.60;;;1.83;;
34767;SDS011;21755;43.608;1.236;2023-09-19T02:40:17;6.22;;;2.10;;
34767;SDS011;21755;43.608;1.236;2023-09-19T02:42:46;7.45;;;2.35;;
34767;SDS011;21755;43.608;1.236;2023-09-19T02:45:14;7.72;;;2.15;;
34767;SDS011;21755;43.608;1.236;2023-09-19T02:47:43;7.43;;;1.95;;
34767;SDS011;21755;43.608;1.236;2023-09-19T02:50:10;12.00;;;2.42;;
34767;SDS011;21755;43.608;1.236;2023-09-19T02:52:36;8.95;;;2.40;;
34767;SDS011;21755;43.608;1.236;2023-09-19T02:55:02;7.55;;;2.22;;
34767;SDS011;21755;43.608;1.236;2023-09-19T02:57:31;6.03;;;2.17;;
34767;SDS011;21755;43.608;1.236;2023-09-19T02:59:58;6.88;;;2.20;;
34767;SDS011;21755;43.608;1.236;2023-09-19T03:02:25;6.18;;;2.08;;
34767;SDS011;21755;43.608;1.236;2023-09-19T03:04:52;5.05;;;1.70;;
34767;SDS011;21755;43.608;1.236;2023-09-19T03:07:18;6.95;;;1.95;;
34767;SDS011;21755;43.608;1.236;2023-09-19T03:09:44;4.45;;;1.80;;
34767;SDS011;21755;43.608;1.236;2023-09-19T03:12:10;7.00;;;2.03;;
34767;SDS011;21755;43.608;1.236;2023-09-19T03:14:36;9.38;;;2.17;;
34767;SDS011;21755;43.608;1.236;2023-09-19T03:17:02;7.70;;;2.30;;
34767;SDS011;21755;43.608;1.236;2023-09-19T03:19:30;6.10;;;1.92;;
34767;SDS011;21755;43.608;1.236;2023-09-19T03:21:58;15.82;;;2.42;;
34767;SDS011;21755;43.608;1.236;2023-09-19T03:24:24;9.43;;;1.75;;
34767;SDS011;21755;43.608;1.236;2023-09-19T03:26:51;7.40;;;2.15;;
34767;SDS011;21755;43.608;1.236;2023-09-19T03:29:17;6.20;;;2.08;;
34767;SDS011;21755;43.608;1.236;2023-09-19T03:31:43;7.13;;;2.38;;
34767;SDS011;21755;43.608;1.236;2023-09-19T03:34:09;6.97;;;1.80;;
34767;SDS011;21755;43.608;1.236;2023-09-19T03:36:35;9.23;;;2.45;;
34767;SDS011;21755;43.608;1.236;2023-09-19T03:39:01;6.10;;;2.25;;
34767;SDS011;21755;43.608;1.236;2023-09-19T03:41:30;5.22;;;1.73;;
34767;SDS011;21755;43.608;1.236;2023-09-19T03:43:56;7.10;;;2.03;;
34767;SDS011;21755;43.608;1.236;2023-09-19T03:46:22;13.93;;;3.10;;
34767;SDS011;21755;43.608;1.236;2023-09-19T03:48:48;6.45;;;1.90;;
34767;SDS011;21755;43.608;1.236;2023-09-19T03:51:15;9.15;;;2.00;;
34767;SDS011;21755;43.608;1.236;2023-09-19T03:53:41;12.23;;;2.60;;
34767;SDS011;21755;43.608;1.236;2023-09-19T03:56:07;6.65;;;2.00;;
34767;SDS011;21755;43.608;1.236;2023-09-19T03:58:33;10.02;;;2.22;;
34767;SDS011;21755;43.608;1.236;2023-09-19T04:01:04;7.65;;;2.00;;
34767;SDS011;21755;43.608;1.236;2023-09-19T04:03:31;8.00;;;1.73;;
34767;SDS011;21755;43.608;1.236;2023-09-19T04:06:14;7.45;;;2.13;;
34767;SDS011;21755;43.608;1.236;2023-09-19T04:08:41;13.52;;;1.85;;
34767;SDS011;21755;43.608;1.236;2023-09-19T04:11:07;6.63;;;2.17;;
34767;SDS011;21755;43.608;1.236;2023-09-19T04:13:33;7.93;;;2.13;;
34767;SDS011;21755;43.608;1.236;2023-09-19T04:15:59;9.68;;;2.30;;
34767;SDS011;21755;43.608;1.236;2023-09-19T04:18:25;4.15;;;2.00;;
34767;SDS011;21755;43.608;1.236;2023-09-19T04:20:51;5.03;;;1.80;;
34767;SDS011;21755;43.608;1.236;2023-09-19T04:23:17;9.27;;;2.13;;
34767;SDS011;21755;43.608;1.236;2023-09-19T04:25:46;5.45;;;2.30;;
34767;SDS011;21755;43.608;1.236;2023-09-19T04:28:13;10.80;;;1.67;;
34767;SDS011;21755;43.608;1.236;2023-09-19T04:30:40;6.57;;;1.85;;
34767;SDS011;21755;43.608;1.236;2023-09-19T04:33:06;5.25;;;2.13;;
34767;SDS011;21755;43.608;1.236;2023-09-19T04:35:32;7.60;;;2.30;;
34767;SDS011;21755;43.608;1.236;2023-09-19T04:37:59;10.70;;;2.60;;
34767;SDS011;21755;43.608;1.236;2023-09-19T04:40:25;8.30;;;2.38;;
34767;SDS011;21755;43.608;1.236;2023-09-19T04:42:54;7.47;;;2.38;;
34767;SDS011;21755;43.608;1.236;2023-09-19T04:45:24;8.82;;;2.05;;
34767;SDS011;21755;43.608;1.236;2023-09-19T04:47:51;13.93;;;2.15;;
34767;SDS011;21755;43.608;1.236;2023-09-19T04:50:18;6.30;;;2.05;;
34767;SDS011;21755;43.608;1.236;2023-09-19T04:52:48;6.35;;;2.35;;
34767;SDS011;21755;43.608;1.236;2023-09-19T04:55:16;6.78;;;2.05;;
34767;SDS011;21755;43.608;1.236;2023-09-19T04:57:43;8.52;;;2.00;;
34767;SDS011;21755;43.608;1.236;2023-09-19T05:00:11;7.75;;;2.30;;
34767;SDS011;21755;43.608;1.236;2023-09-19T05:02:39;8.05;;;2.15;;
34767;SDS011;21755;43.608;1.236;2023-09-19T05:05:07;13.80;;;3.03;;
34767;SDS011;21755;43.608;1.236;2023-09-19T05:07:34;9.90;;;2.17;;
34767;SDS011;21755;43.608;1.236;2023-09-19T05:10:00;8.05;;;2.85;;
34767;SDS011;21755;43.608;1.236;2023-09-19T05:12:26;7.40;;;2.20;;
34767;SDS011;21755;43.608;1.236;2023-09-19T05:14:52;6.00;;;2.25;;
34767;SDS011;21755;43.608;1.236;2023-09-19T05:17:18;8.18;;;2.35;;
34767;SDS011;21755;43.608;1.236;2023-09-19T05:19:44;6.80;;;1.95;;
34767;SDS011;21755;43.608;1.236;2023-09-19T05:22:11;10.00;;;2.20;;
34767;SDS011;21755;43.608;1.236;2023-09-19T05:24:37;5.95;;;1.90;;
34767;SDS011;21755;43.608;1.236;2023-09-19T05:27:04;6.55;;;1.85;;
34767;SDS011;21755;43.608;1.236;2023-09-19T05:29:32;11.02;;;3.03;;
34767;SDS011;21755;43.608;1.236;2023-09-19T05:31:58;8.00;;;2.38;;
34767;SDS011;21755;43.608;1.236;2023-09-19T05:34:24;8.63;;;2.42;;
34767;SDS011;21755;43.608;1.236;2023-09-19T05:36:55;9.05;;;2.20;;
34767;SDS011;21755;43.608;1.236;2023-09-19T05:39:21;4.60;;;2.03;;
34767;SDS011;21755;43.608;1.236;2023-09-19T05:41:47;8.35;;;2.50;;
34767;SDS011;21755;43.608;1.236;2023-09-19T05:44:13;10.95;;;2.28;;
34767;SDS011;21755;43.608;1.236;2023-09-19T05:46:40;5.07;;;2.10;;
34767;SDS011;21755;43.608;1.236;2023-09-19T05:49:05;6.78;;;2.45;;
34767;SDS011;21755;43.608;1.236;2023-09-19T05:51:31;8.98;;;2.10;;
34767;SDS011;21755;43.608;1.236;2023-09-19T05:53:57;6.72;;;2.20;;
34767;SDS011;21755;43.608;1.236;2023-09-19T05:56:23;8.80;;;2.03;;
34767;SDS011;21755;43.608;1.236;2023-09-19T05:58:49;10.70;;;2.65;;
34767;SDS011;21755;43.608;1.236;2023-09-19T06:01:17;7.05;;;2.45;;
34767;SDS011;21755;43.608;1.236;2023-09-19T06:03:43;9.30;;;2.67;;
34767;SDS011;21755;43.608;1.236;2023-09-19T06:06:08;12.88;;;2.63;;
34767;SDS011;21755;43.608;1.236;2023-09-19T06:08:34;10.10;;;2.55;;
34767;SDS011;21755;43.608;1.236;2023-09-19T06:11:00;6.70;;;2.47;;
34767;SDS011;21755;43.608;1.236;2023-09-19T06:13:30;9.50;;;2.83;;
34767;SDS011;21755;43.608;1.236;2023-09-19T06:15:58;7.50;;;2.55;;
34767;SDS011;21755;43.608;1.236;2023-09-19T06:18:29;5.78;;;2.08;;
34767;SDS011;21755;43.608;1.236;2023-09-19T06:20:58;7.07;;;2.35;;
34767;SDS011;21755;43.608;1.236;2023-09-19T06:23:25;6.47;;;2.35;;
34767;SDS011;21755;43.608;1.236;2023-09-19T06:25:54;10.38;;;2.20;;
34767;SDS011;21755;43.608;1.236;2023-09-19T06:28:20;11.13;;;1.95;;
34767;SDS011;21755;43.608;1.236;2023-09-19T06:30:50;11.38;;;2.60;;
34767;SDS011;21755;43.608;1.236;2023-09-19T06:33:16;7.93;;;2.20;;
34767;SDS011;21755;43.608;1.236;2023-09-19T06:35:43;10.27;;;2.20;;
34767;SDS011;21755;43.608;1.236;2023-09-19T06:38:09;11.02;;;2.38;;
34767;SDS011;21755;43.608;1.236;2023-09-19T06:40:38;15.75;;;2.33;;
34767;SDS011;21755;43.608;1.236;2023-09-19T06:43:04;10.45;;;2.45;;
34767;SDS011;21755;43.608;1.236;2023-09-19T06:45:31;8.15;;;2.13;;
34767;SDS011;21755;43.608;1.236;2023-09-19T06:47:57;6.50;;;2.17;;
34767;SDS011;21755;43.608;1.236;2023-09-19T06:50:25;10.73;;;2.47;;
34767;SDS011;21755;43.608;1.236;2023-09-19T06:52:55;12.65;;;2.63;;
34767;SDS011;21755;43.608;1.236;2023-09-19T06:55:22;4.75;;;2.20;;
34767;SDS011;21755;43.608;1.236;2023-09-19T06:57:53;5.03;;;1.50;;
34767;SDS011;21755;43.608;1.236;2023-09-19T07:00:19;14.13;;;2.30;;
34767;SDS011;21755;43.608;1.236;2023-09-19T07:03:09;9.20;;;2.47;;
34767;SDS011;21755;43.608;1.236;2023-09-19T07:05:36;8.05;;;2.47;;
34767;SDS011;21755;43.608;1.236;2023-09-19T07:08:07;9.30;;;2.10;;
34767;SDS011;21755;43.608;1.236;2023-09-19T07:10:38;11.13;;;2.38;;
34767;SDS011;21755;43.608;1.236;2023-09-19T07:13:13;15.20;;;2.97;;
34767;SDS011;21755;43.608;1.236;2023-09-19T07:15:41;7.45;;;2.05;;
34767;SDS011;21755;43.608;1.236;2023-09-19T07:18:15;10.95;;;2.08;;
34767;SDS011;21755;43.608;1.236;2023-09-19T07:20:45;9.65;;;2.50;;
34767;SDS011;21755;43.608;1.236;2023-09-19T07:23:20;7.82;;;1.98;;
34767;SDS011;21755;43.608;1.236;2023-09-19T07:25:48;16.30;;;2.65;;
34767;SDS011;21755;43.608;1.236;2023-09-19T07:28:14;10.10;;;2.10;;
34767;SDS011;21755;43.608;1.236;2023-09-19T07:30:40;10.82;;;2.15;;
34767;SDS011;21755;43.608;1.236;2023-09-19T07:33:12;12.73;;;2.42;;
34767;SDS011;21755;43.608;1.236;2023-09-19T07:35:38;8.40;;;2.40;;
34767;SDS011;21755;43.608;1.236;2023-09-19T07:38:07;11.48;;;2.05;;
34767;SDS011;21755;43.608;1.236;2023-09-19T07:40:35;7.43;;;2.10;;
34767;SDS011;21755;43.608;1.236;2023-09-19T07:43:01;12.20;;;1.90;;
34767;SDS011;21755;43.608;1.236;2023-09-19T07:45:29;13.13;;;2.17;;
34767;SDS011;21755;43.608;1.236;2023-09-19T07:47:56;9.38;;;2.33;;
34767;SDS011;21755;43.608;1.236;2023-09-19T07:50:22;8.55;;;2.13;;
34767;SDS011;21755;43.608;1.236;2023-09-19T07:52:49;16.40;;;2.33;;
34767;SDS011;21755;43.608;1.236;2023-09-19T07:55:21;7.65;;;1.73;;
34767;SDS011;21755;43.608;1.236;2023-09-19T08:00:19;16.70;;;2.60;;
34767;SDS011;21755;43.608;1.236;2023-09-19T08:02:45;9.07;;;1.90;;
34767;SDS011;21755;43.608;1.236;2023-09-19T08:05:12;6.50;;;2.13;;
34767;SDS011;21755;43.608;1.236;2023-09-19T08:07:42;13.30;;;2.65;;
34767;SDS011;21755;43.608;1.236;2023-09-19T08:10:10;13.25;;;2.30;;
34767;SDS011;21755;43.608;1.236;2023-09-19T08:12:40;16.00;;;2.53;;
34767;SDS011;21755;43.608;1.236;2023-09-19T08:15:17;13.25;;;2.15;;
34767;SDS011;21755;43.608;1.236;2023-09-19T08:17:44;10.00;;;2.47;;
34767;SDS011;21755;43.608;1.236;2023-09-19T08:20:11;11.50;;;2.85;;
34767;SDS011;21755;43.608;1.236;2023-09-19T08:22:47;10.43;;;3.03;;
34767;SDS011;21755;43.608;1.236;2023-09-19T08:25:15;9.88;;;2.03;;
34767;SDS011;21755;43.608;1.236;2023-09-19T08:27:47;16.38;;;2.67;;
34767;SDS011;21755;43.608;1.236;2023-09-19T08:30:17;12.55;;;2.70;;
34767;SDS011;21755;43.608;1.236;2023-09-19T08:32:49;6.38;;;2.00;;
34767;SDS011;21755;43.608;1.236;2023-09-19T08:35:25;11.80;;;2.40;;
34767;SDS011;21755;43.608;1.236;2023-09-19T08:37:51;9.40;;;2.05;;
34767;SDS011;21755;43.608;1.236;2023-09-19T08:40:17;9.98;;;1.85;;
34767;SDS011;21755;43.608;1.236;2023-09-19T08:42:49;11.45;;;2.00;;
34767;SDS011;21755;43.608;1.236;2023-09-19T08:45:19;9.10;;;1.85;;
34767;SDS011;21755;43.608;1.236;2023-09-19T08:47:56;7.50;;;1.80;;
34767;SDS011;21755;43.608;1.236;2023-09-19T08:50:27;14.98;;;1.98;;
34767;SDS011;21755;43.608;1.236;2023-09-19T08:53:00;9.40;;;2.17;;
34767;SDS011;21755;43.608;1.236;2023-09-19T08:55:27;6.20;;;1.40;;
34767;SDS011;21755;43.608;1.236;2023-09-19T08:58:03;9.48;;;1.80;;
34767;SDS011;21755;43.608;1.236;2023-09-19T09:00:31;9.25;;;1.88;;
34767;SDS011;21755;43.608;1.236;2023-09-19T09:02:59;11.10;;;1.88;;
34767;SDS011;21755;43.608;1.236;2023-09-19T09:05:28;9.52;;;2.05;;
34767;SDS011;21755;43.608;1.236;2023-09-19T09:07:55;7.63;;;1.73;;
34767;SDS011;21755;43.608;1.236;2023-09-19T09:10:22;8.90;;;1.52;;
34767;SDS011;21755;43.608;1.236;2023-09-19T09:12:49;11.63;;;1.65;;
34767;SDS011;21755;43.608;1.236;2023-09-19T09:15:17;7.20;;;1.70;;
34767;SDS011;21755;43.608;1.236;2023-09-19T09:17:49;11.57;;;1.80;;
34767;SDS011;21755;43.608;1.236;2023-09-19T09:20:18;12.82;;;2.10;;
34767;SDS011;21755;43.608;1.236;2023-09-19T09:22:53;8.85;;;1.83;;
34767;SDS011;21755;43.608;1.236;2023-09-19T09:25:19;9.30;;;1.67;;
34767;SDS011;21755;43.608;1.236;2023-09-19T09:28:01;9.48;;;1.70;;
34767;SDS011;21755;43.608;1.236;2023-09-19T09:30:36;5.72;;;1.50;;
34767;SDS011;21755;43.608;1.236;2023-09-19T09:33:12;8.48;;;1.90;;
34767;SDS011;21755;43.608;1.236;2023-09-19T09:38:22;4.43;;;1.25;;
34767;SDS011;21755;43.608;1.236;2023-09-19T09:40:54;5.70;;;1.90;;
34767;SDS011;21755;43.608;1.236;2023-09-19T09:46:17;3.05;;;1.15;;
34767;SDS011;21755;43.608;1.236;2023-09-19T09:49:04;7.82;;;2.00;;
34767;SDS011;21755;43.608;1.236;2023-09-19T09:51:39;9.15;;;2.30;;
34767;SDS011;21755;43.608;1.236;2023-09-19T09:54:14;6.97;;;1.63;;
34767;SDS011;21755;43.608;1.236;2023-09-19T09:56:55;6.60;;;1.60;;
34767;SDS011;21755;43.608;1.236;2023-09-19T10:02:41;11.88;;;1.55;;
34767;SDS011;21755;43.608;1.236;2023-09-19T10:05:14;6.47;;;1.23;;
34767;SDS011;21755;43.608;1.236;2023-09-19T10:07:44;6.38;;;1.17;;
34767;SDS011;21755;43.608;1.236;2023-09-19T10:13:06;9.77;;;1.33;;
34767;SDS011;21755;43.608;1.236;2023-09-19T10:15:37;6.35;;;1.20;;
34767;SDS011;21755;43.608;1.236;2023-09-19T10:18:07;7.25;;;1.70;;
34767;SDS011;21755;43.608;1.236;2023-09-19T10:20:43;9.00;;;1.52;;
34767;SDS011;21755;43.608;1.236;2023-09-19T10:23:10;9.25;;;1.42;;
34767;SDS011;21755;43.608;1.236;2023-09-19T10:25:41;2.65;;;1.27;;
34767;SDS011;21755;43.608;1.236;2023-09-19T10:28:08;2.97;;;0.82;;
34767;SDS011;21755;43.608;1.236;2023-09-19T10:30:45;6.68;;;1.20;;
34767;SDS011;21755;43.608;1.236;2023-09-19T10:33:13;4.95;;;1.13;;
34767;SDS011;21755;43.608;1.236;2023-09-19T10:35:43;5.47;;;1.50;;
34767;SDS011;21755;43.608;1.236;2023-09-19T10:38:11;3.10;;;1.10;;
34767;SDS011;21755;43.608;1.236;2023-09-19T10:40:38;4.22;;;1.13;;
34767;SDS011;21755;43.608;1.236;2023-09-19T10:43:20;1.55;;;1.00;;
34767;SDS011;21755;43.608;1.236;2023-09-19T10:45:50;6.40;;;1.80;;
34767;SDS011;21755;43.608;1.236;2023-09-19T10:48:18;6.22;;;1.10;;
34767;SDS011;21755;43.608;1.236;2023-09-19T10:50:46;5.70;;;0.98;;
34767;SDS011;21755;43.608;1.236;2023-09-19T10:53:16;2.42;;;0.82;;
34767;SDS011;21755;43.608;1.236;2023-09-19T10:55:59;3.97;;;0.80;;
34767;SDS011;21755;43.608;1.236;2023-09-19T10:58:28;6.22;;;1.17;;
34767;SDS011;21755;43.608;1.236;2023-09-19T11:00:59;3.80;;;1.23;;
34767;SDS011;21755;43.608;1.236;2023-09-19T11:03:32;4.18;;;1.00;;
34767;SDS011;21755;43.608;1.236;2023-09-19T11:11:47;2.70;;;1.00;;
34767;SDS011;21755;43.608;1.236;2023-09-19T11:30:40;6.85;;;1.10;;
34767;SDS011;21755;43.608;1.236;2023-09-19T11:33:29;2.88;;;1.02;;
34767;SDS011;21755;43.608;1.236;2023-09-19T11:36:13;3.10;;;1.17;;
34767;SDS011;21755;43.608;1.236;2023-09-19T11:43:47;8.43;;;1.30;;
34767;SDS011;21755;43.608;1.236;2023-09-19T11:46:15;4.80;;;1.17;;
34767;SDS011;21755;43.608;1.236;2023-09-19T11:48:50;2.05;;;0.88;;
34767;SDS011;21755;43.608;1.236;2023-09-19T11:51:18;5.57;;;1.17;;
34767;SDS011;21755;43.608;1.236;2023-09-19T11:53:47;4.03;;;0.93;;
34767;SDS011;21755;43.608;1.236;2023-09-19T11:56:19;2.97;;;0.98;;
34767;SDS011;21755;43.608;1.236;2023-09-19T11:58:52;8.00;;;1.45;;
34767;SDS011;21755;43.608;1.236;2023-09-19T12:01:23;5.13;;;1.10;;
34767;SDS011;21755;43.608;1.236;2023-09-19T12:03:58;4.78;;;1.20;;
34767;SDS011;21755;43.608;1.236;2023-09-19T12:06:28;1.75;;;0.70;;
34767;SDS011;21755;43.608;1.236;2023-09-19T12:08:54;4.97;;;1.20;;
34767;SDS011;21755;43.608;1.236;2023-09-19T12:11:27;1.08;;;0.65;;
34767;SDS011;21755;43.608;1.236;2023-09-19T12:13:58;2.08;;;0.70;;
34767;SDS011;21755;43.608;1.236;2023-09-19T12:16:26;4.95;;;0.85;;
34767;SDS011;21755;43.608;1.236;2023-09-19T12:18:55;2.03;;;0.80;;
34767;SDS011;21755;43.608;1.236;2023-09-19T12:21:23;4.35;;;0.90;;
34767;SDS011;21755;43.608;1.236;2023-09-19T12:23:57;1.83;;;0.80;;
34767;SDS011;21755;43.608;1.236;2023-09-19T12:26:44;5.10;;;1.00;;
34767;SDS011;21755;43.608;1.236;2023-09-19T12:29:16;3.33;;;1.02;;
34767;SDS011;21755;43.608;1.236;2023-09-19T12:31:48;4.68;;;0.95;;
34767;SDS011;21755;43.608;1.236;2023-09-19T12:34:29;4.38;;;0.90;;
34767;SDS011;21755;43.608;1.236;2023-09-19T12:37:09;6.82;;;0.68;;
34767;SDS011;21755;43.608;1.236;2023-09-19T12:39:52;3.20;;;0.80;;
34767;SDS011;21755;43.608;1.236;2023-09-19T12:42:24;4.50;;;1.23;;
34767;SDS011;21755;43.608;1.236;2023-09-19T12:44:54;1.70;;;0.60;;
34767;SDS011;21755;43.608;1.236;2023-09-19T12:47:22;2.75;;;1.02;;
34767;SDS011;21755;43.608;1.236;2023-09-19T12:50:05;0.63;;;0.63;;
34767;SDS011;21755;43.608;1.236;2023-09-19T12:52:39;6.57;;;1.05;;
34767;SDS011;21755;43.608;1.236;2023-09-19T12:55:05;4.32;;;0.95;;
34767;SDS011;21755;43.608;1.236;2023-09-19T12:57:36;5.05;;;0.98;;
34767;SDS011;21755;43.608;1.236;2023-09-19T13:00:04;5.25;;;0.95;;
34767;SDS011;21755;43.608;1.236;2023-09-19T13:02:31;5.15;;;0.95;;
34767;SDS011;21755;43.608;1.236;2023-09-19T13:04:57;1.40;;;0.75;;
34767;SDS011;21755;43.608;1.236;2023-09-19T13:07:44;1.42;;;0.70;;
34767;SDS011;21755;43.608;1.236;2023-09-19T13:10:15;2.65;;;0.80;;
34767;SDS011;21755;43.608;1.236;2023-09-19T13:12:44;2.42;;;0.75;;
34767;SDS011;21755;43.608;1.236;2023-09-19T13:15:12;5.30;;;1.42;;
34767;SDS011;21755;43.608;1.236;2023-09-19T13:17:44;5.85;;;1.00;;
34767;SDS011;21755;43.608;1.236;2023-09-19T13:20:24;4.03;;;0.80;;
34767;SDS011;21755;43.608;1.236;2023-09-19T13:22:54;7.50;;;0.95;;
34767;SDS011;21755;43.608;1.236;2023-09-19T13:25:23;2.25;;;0.65;;
34767;SDS011;21755;43.608;1.236;2023-09-19T13:27:51;2.97;;;0.93;;
34767;SDS011;21755;43.608;1.236;2023-09-19T13:30:19;4.57;;;0.90;;
34767;SDS011;21755;43.608;1.236;2023-09-19T13:32:46;1.50;;;0.70;;
34767;SDS011;21755;43.608;1.236;2023-09-19T13:35:13;2.65;;;0.90;;
34767;SDS011;21755;43.608;1.236;2023-09-19T13:37:40;1.65;;;0.70;;
34767;SDS011;21755;43.608;1.236;2023-09-19T13:40:10;2.70;;;0.73;;
34767;SDS011;21755;43.608;1.236;2023-09-19T13:42:37;3.10;;;0.82;;
34767;SDS011;21755;43.608;1.236;2023-09-19T13:45:03;2.30;;;0.75;;
34767;SDS011;21755;43.608;1.236;2023-09-19T13:47:33;3.35;;;0.95;;
34767;SDS011;21755;43.608;1.236;2023-09-19T13:50:01;2.13;;;0.60;;
34767;SDS011;21755;43.608;1.236;2023-09-19T13:52:29;3.65;;;0.80;;
34767;SDS011;21755;43.608;1.236;2023-09-19T13:54:56;5.70;;;0.80;;
34767;SDS011;21755;43.608;1.236;2023-09-19T13:57:22;2.58;;;0.80;;
34767;SDS011;21755;43.608;1.236;2023-09-19T13:59:52;3.08;;;0.70;;
34767;SDS011;21755;43.608;1.236;2023-09-19T14:02:21;3.78;;;0.90;;
34767;SDS011;21755;43.608;1.236;2023-09-19T14:04:50;1.38;;;0.80;;
34767;SDS011;21755;43.608;1.236;2023-09-19T14:07:16;4.47;;;0.88;;
34767;SDS011;21755;43.608;1.236;2023-09-19T14:09:46;3.60;;;0.85;;
34767;SDS011;21755;43.608;1.236;2023-09-19T14:12:12;1.80;;;0.77;;
34767;SDS011;21755;43.608;1.236;2023-09-19T14:14:39;2.67;;;0.70;;
34767;SDS011;21755;43.608;1.236;2023-09-19T14:17:04;0.95;;;0.52;;
34767;SDS011;21755;43.608;1.236;2023-09-19T14:19:32;2.08;;;0.70;;
34767;SDS011;21755;43.608;1.236;2023-09-19T14:21:58;2.30;;;0.80;;
34767;SDS011;21755;43.608;1.236;2023-09-19T14:24:27;3.55;;;0.73;;
34767;SDS011;21755;43.608;1.236;2023-09-19T14:26:52;3.75;;;0.80;;
34767;SDS011;21755;43.608;1.236;2023-09-19T14:29:19;1.98;;;1.05;;
34767;SDS011;21755;43.608;1.236;2023-09-19T14:31:44;3.35;;;1.00;;
34767;SDS011;21755;43.608;1.236;2023-09-19T14:34:10;1.63;;;0.80;;
34767;SDS011;21755;43.608;1.236;2023-09-19T14:36:36;2.42;;;0.82;;
34767;SDS011;21755;43.608;1.236;2023-09-19T14:39:03;2.58;;;1.00;;
34767;SDS011;21755;43.608;1.236;2023-09-19T14:41:29;3.95;;;1.00;;
34767;SDS011;21755;43.608;1.236;2023-09-19T14:43:56;3.92;;;1.10;;
34767;SDS011;21755;43.608;1.236;2023-09-19T14:46:22;4.20;;;0.88;;
34767;SDS011;21755;43.608;1.236;2023-09-19T14:48:50;2.65;;;1.00;;
34767;SDS011;21755;43.608;1.236;2023-09-19T14:51:16;2.78;;;0.80;;
34767;SDS011;21755;43.608;1.236;2023-09-19T14:53:44;4.03;;;0.70;;
34767;SDS011;21755;43.608;1.236;2023-09-19T14:56:11;4.55;;;0.93;;
34767;SDS011;21755;43.608;1.236;2023-09-19T14:58:38;5.00;;;1.17;;
34767;SDS011;21755;43.608;1.236;2023-09-19T15:01:05;3.08;;;0.75;;
34767;SDS011;21755;43.608;1.236;2023-09-19T15:03:32;2.28;;;0.82;;
34767;SDS011;21755;43.608;1.236;2023-09-19T15:05:59;1.20;;;0.80;;
34767;SDS011;21755;43.608;1.236;2023-09-19T15:08:32;1.33;;;0.70;;
34767;SDS011;21755;43.608;1.236;2023-09-19T15:11:06;6.10;;;0.88;;
34767;SDS011;21755;43.608;1.236;2023-09-19T15:13:33;6.47;;;0.82;;
34767;SDS011;21755;43.608;1.236;2023-09-19T15:16:00;1.95;;;0.60;;
34767;SDS011;21755;43.608;1.236;2023-09-19T15:18:29;2.20;;;0.70;;
34767;SDS011;21755;43.608;1.236;2023-09-19T15:20:56;4.93;;;1.25;;
34767;SDS011;21755;43.608;1.236;2023-09-19T15:23:25;4.10;;;1.05;;
34767;SDS011;21755;43.608;1.236;2023-09-19T15:25:51;4.20;;;0.85;;
34767;SDS011;21755;43.608;1.236;2023-09-19T15:28:18;2.03;;;0.75;;
34767;SDS011;21755;43.608;1.236;2023-09-19T15:30:47;2.25;;;0.60;;
34767;SDS011;21755;43.608;1.236;2023-09-19T15:33:22;1.33;;;0.80;;
34767;SDS011;21755;43.608;1.236;2023-09-19T15:35:48;2.45;;;0.68;;
34767;SDS011;21755;43.608;1.236;2023-09-19T15:38:13;1.65;;;0.70;;
34767;SDS011;21755;43.608;1.236;2023-09-19T15:40:46;2.92;;;0.70;;
34767;SDS011;21755;43.608;1.236;2023-09-19T15:43:12;3.95;;;1.13;;
34767;SDS011;21755;43.608;1.236;2023-09-19T15:45:39;4.53;;;1.00;;
34767;SDS011;21755;43.608;1.236;2023-09-19T15:48:05;3.63;;;0.90;;
34767;SDS011;21755;43.608;1.236;2023-09-19T15:50:31;1.55;;;0.80;;
34767;SDS011;21755;43.608;1.236;2023-09-19T15:52:57;2.75;;;0.88;;
34767;SDS011;21755;43.608;1.236;2023-09-19T15:55:23;3.83;;;0.82;;
34767;SDS011;21755;43.608;1.236;2023-09-19T15:57:48;3.15;;;0.95;;
34767;SDS011;21755;43.608;1.236;2023-09-19T16:00:14;4.22;;;0.90;;
34767;SDS011;21755;43.608;1.236;2023-09-19T16:02:42;3.80;;;1.25;;